createdAt,value
2022-12-24T00:02:56.634Z,40.67
2022-12-24T00:05:42.535Z,41.03
2022-12-24T00:08:28.595Z,42.53
2022-12-24T00:11:14.181Z,41.15
2022-12-24T00:14:00.637Z,42.95
2022-12-24T00:16:46.750Z,43.65
2022-12-24T00:19:33.295Z,43.72
2022-12-24T00:22:19.078Z,42.47
2022-12-24T00:25:05.709Z,43.38
2022-12-24T00:27:51.661Z,43.67
2022-12-24T00:30:42.262Z,45.00
2022-12-24T00:33:28.385Z,66.77
2022-12-24T00:36:15.961Z,83.93
2022-12-24T00:39:01.928Z,71.95
2022-12-24T00:41:48.051Z,40.50
2022-12-24T00:44:33.991Z,95.68
2022-12-24T00:47:20.757Z,53.35
2022-12-24T00:50:08.240Z,65.82
2022-12-24T00:52:54.372Z,50.50
2022-12-24T00:55:40.436Z,87.68
2022-12-24T00:58:26.695Z,46.97
2022-12-24T01:01:12.943Z,57.08
2022-12-24T01:04:22.574Z,52.95
2022-12-24T01:07:08.617Z,46.70
2022-12-24T01:09:55.203Z,48.15
2022-12-24T01:12:42.669Z,35.38
2022-12-24T01:15:31.635Z,31.20
2022-12-24T01:18:17.779Z,36.22
2022-12-24T01:21:04.934Z,35.22
2022-12-24T01:23:50.960Z,29.52
2022-12-24T01:26:36.998Z,45.40
2022-12-24T01:29:22.858Z,43.78
2022-12-24T01:32:09.454Z,49.17
2022-12-24T01:34:55.218Z,50.55
2022-12-24T01:37:43.177Z,34.40
2022-12-24T01:40:47.557Z,24.63
2022-12-24T01:43:34.149Z,50.53
2022-12-24T01:46:26.917Z,20.52
2022-12-24T01:49:14.818Z,22.48
2022-12-24T01:52:04.177Z,22.48
2022-12-24T01:54:54.104Z,26.00
2022-12-24T01:58:02.136Z,19.98
2022-12-24T02:00:48.424Z,24.55
2022-12-24T02:03:34.426Z,19.45
2022-12-24T02:06:21.603Z,28.70
2022-12-24T02:09:07.800Z,35.97
2022-12-24T02:11:54.240Z,36.20
2022-12-24T02:14:40.405Z,28.55
2022-12-24T02:17:54.380Z,33.17
2022-12-24T02:20:39.998Z,24.17
2022-12-24T02:23:38.115Z,27.05
2022-12-24T02:26:42.241Z,21.60
2022-12-24T02:29:59.683Z,25.25
2022-12-24T02:32:53.553Z,20.67
2022-12-24T02:35:50.549Z,24.70
2022-12-24T02:38:45.496Z,23.98
2022-12-24T02:41:54.353Z,19.38
2022-12-24T02:44:46.239Z,21.13
2022-12-24T02:47:34.543Z,30.23
2022-12-24T02:50:20.597Z,29.20
2022-12-24T02:53:11.025Z,19.90
2022-12-24T02:55:59.626Z,21.13
2022-12-24T02:58:46.612Z,26.60
2022-12-24T03:01:52.707Z,22.77
2022-12-24T03:05:11.300Z,21.58
2022-12-24T03:08:25.466Z,18.17
2022-12-24T03:11:15.473Z,21.17
2022-12-24T03:14:02.057Z,24.50
2022-12-24T03:16:49.194Z,16.55
2022-12-24T03:19:35.471Z,15.43
2022-12-24T03:22:22.662Z,18.15
2022-12-24T03:25:09.070Z,15.80
2022-12-24T03:27:57.215Z,25.55
2022-12-24T03:30:45.697Z,16.20
2022-12-24T03:33:32.119Z,17.50
2022-12-24T03:36:18.455Z,26.23
2022-12-24T03:39:05.889Z,16.88
2022-12-24T03:41:51.416Z,17.88
2022-12-24T03:44:40.293Z,17.15
2022-12-24T03:47:26.171Z,21.10
2022-12-24T03:50:12.535Z,18.23
2022-12-24T03:52:58.380Z,19.10
2022-12-24T03:55:45.157Z,18.63
2022-12-24T03:58:30.793Z,16.95
2022-12-24T04:01:18.177Z,20.02
2022-12-24T04:04:04.724Z,18.27
2022-12-24T04:06:51.141Z,21.38
2022-12-24T04:09:36.938Z,20.10
2022-12-24T04:12:23.574Z,15.82
2022-12-24T04:15:09.820Z,17.42
2022-12-24T04:17:56.225Z,16.48
2022-12-24T04:20:42.535Z,16.92
2022-12-24T04:23:31.926Z,14.30
2022-12-24T04:26:18.029Z,14.10
2022-12-24T04:29:04.267Z,15.38
2022-12-24T04:31:50.270Z,13.70
2022-12-24T04:34:37.119Z,16.40
2022-12-24T04:37:23.300Z,13.32
2022-12-24T04:40:10.031Z,18.17
2022-12-24T04:42:55.526Z,16.13
2022-12-24T04:45:41.725Z,17.45
2022-12-24T04:48:27.853Z,21.23
2022-12-24T04:51:15.195Z,16.13
2022-12-24T04:54:01.264Z,16.15
2022-12-24T04:56:47.523Z,17.00
2022-12-24T04:59:33.506Z,16.30
2022-12-24T05:02:20.169Z,15.80
2022-12-24T05:05:06.336Z,16.38
2022-12-24T05:07:52.878Z,16.42
2022-12-24T05:10:38.830Z,15.98
2022-12-24T05:13:31.872Z,16.40
2022-12-24T05:16:23.831Z,15.90
2022-12-24T05:19:10.421Z,17.73
2022-12-24T05:22:14.889Z,18.33
2022-12-24T05:25:20.130Z,17.15
2022-12-24T05:28:06.058Z,19.95
2022-12-24T05:30:54.588Z,18.77
2022-12-24T05:33:40.799Z,20.55
2022-12-24T05:36:27.303Z,20.52
2022-12-24T05:39:17.515Z,19.88
2022-12-24T05:42:04.207Z,20.92
2022-12-24T05:44:50.108Z,19.75
2022-12-24T05:47:42.919Z,21.35
2022-12-24T05:50:29.137Z,17.83
2022-12-24T05:53:25.018Z,19.67
2022-12-24T05:56:17.175Z,17.85
2022-12-24T05:59:04.001Z,18.05
2022-12-24T06:01:49.657Z,19.63
2022-12-24T06:04:35.802Z,18.25
2022-12-24T06:07:22.127Z,17.95
2022-12-24T06:10:10.571Z,19.30
2022-12-24T06:12:56.586Z,18.42
2022-12-24T06:15:42.992Z,18.98
2022-12-24T06:18:32.635Z,16.17
2022-12-24T06:21:20.014Z,18.13
2022-12-24T06:24:06.093Z,17.73
2022-12-24T06:26:51.968Z,17.27
2022-12-24T06:29:38.041Z,19.05
2022-12-24T06:32:24.096Z,16.88
2022-12-24T06:35:09.896Z,50.65
2022-12-24T06:37:56.522Z,19.75
2022-12-24T06:40:43.818Z,16.40
2022-12-24T06:43:30.145Z,18.25
2022-12-24T06:46:16.840Z,17.33
2022-12-24T06:49:02.750Z,17.65
2022-12-24T06:51:48.649Z,18.38
2022-12-24T06:54:35.168Z,19.40
2022-12-24T06:57:20.887Z,18.23
2022-12-24T07:00:10.807Z,19.70
2022-12-24T07:02:56.574Z,19.17
2022-12-24T07:05:43.081Z,20.38
2022-12-24T07:08:29.541Z,54.58
2022-12-24T07:11:16.300Z,20.77
2022-12-24T07:14:02.913Z,20.73
2022-12-24T07:16:55.277Z,25.30
2022-12-24T07:19:44.532Z,27.02
2022-12-24T07:22:31.204Z,26.15
2022-12-24T07:25:20.291Z,23.95
2022-12-24T07:28:06.268Z,22.20
2022-12-24T07:30:52.096Z,23.20
2022-12-24T07:33:38.302Z,21.48
2022-12-24T07:36:24.581Z,22.65
2022-12-24T07:39:10.781Z,25.83
2022-12-24T07:41:56.499Z,22.75
2022-12-24T07:44:44.433Z,22.23
2022-12-24T07:47:30.409Z,21.60
2022-12-24T07:50:17.082Z,19.55
2022-12-24T07:53:02.934Z,22.13
2022-12-24T07:55:49.543Z,28.73
2022-12-24T07:58:35.253Z,26.95
2022-12-24T08:01:21.363Z,44.65
2022-12-24T08:04:07.709Z,21.80
2022-12-24T08:06:53.976Z,24.10
2022-12-24T08:09:40.119Z,23.70
2022-12-24T08:12:26.949Z,27.35
2022-12-24T08:15:14.579Z,25.65
2022-12-24T08:18:01.257Z,47.47
2022-12-24T08:20:47.292Z,29.50
2022-12-24T08:23:34.002Z,32.03
2022-12-24T08:26:19.731Z,22.73
2022-12-24T08:29:06.576Z,29.55
2022-12-24T08:31:52.350Z,24.17
2022-12-24T08:34:38.560Z,27.30
2022-12-24T08:37:24.326Z,24.75
2022-12-24T08:40:11.190Z,32.78
2022-12-24T08:42:56.910Z,21.17
2022-12-24T08:45:48.296Z,26.23
2022-12-24T08:48:35.243Z,35.05
2022-12-24T08:51:21.485Z,28.33
2022-12-24T08:54:07.191Z,30.58
2022-12-24T08:56:53.094Z,32.45
2022-12-24T08:59:39.046Z,35.35
2022-12-24T09:02:25.740Z,35.50
2022-12-24T09:05:11.746Z,33.90
2022-12-24T09:07:58.373Z,27.17
2022-12-24T09:10:44.585Z,25.77
2022-12-24T09:13:31.536Z,35.38
2022-12-24T09:16:18.359Z,32.78
2022-12-24T09:19:04.790Z,52.03
2022-12-24T09:21:51.031Z,33.92
2022-12-24T09:24:37.200Z,36.15
2022-12-24T09:27:25.242Z,33.65
2022-12-24T09:30:13.540Z,30.75
2022-12-24T09:32:59.877Z,25.10
2022-12-24T09:35:46.803Z,28.65
2022-12-24T09:38:33.542Z,23.17
2022-12-24T09:41:22.579Z,24.02
2022-12-24T09:44:35.628Z,25.83
2022-12-24T09:47:27.166Z,35.17
2022-12-24T09:53:22.899Z,23.90
2022-12-24T09:56:15.088Z,33.85
2022-12-24T09:59:04.148Z,27.08
2022-12-24T10:04:39.497Z,30.10
2022-12-24T10:07:52.054Z,28.73
2022-12-24T10:10:43.621Z,27.85
2022-12-24T10:13:41.520Z,29.25
2022-12-24T10:16:36.912Z,50.47
2022-12-24T10:19:46.195Z,39.00
2022-12-24T10:23:03.729Z,35.10
2022-12-24T10:26:04.992Z,34.60
2022-12-24T10:28:59.194Z,35.00
2022-12-24T10:31:58.185Z,36.55
2022-12-24T10:35:17.013Z,31.58
2022-12-24T10:38:04.496Z,50.33
2022-12-24T10:40:53.545Z,28.58
2022-12-24T10:43:42.599Z,28.77
2022-12-24T10:46:35.566Z,28.52
2022-12-24T10:49:29.696Z,35.13
2022-12-24T10:52:20.282Z,59.15
2022-12-24T10:55:24.411Z,56.55
2022-12-24T10:58:17.808Z,51.78
2022-12-24T11:01:04.176Z,50.45
2022-12-24T11:04:02.352Z,53.10
2022-12-24T11:06:55.998Z,46.67
2022-12-24T11:09:43.754Z,41.50
2022-12-24T11:12:35.561Z,45.90
2022-12-24T11:15:34.887Z,38.33
2022-12-24T11:18:20.786Z,38.95
2022-12-24T11:21:07.159Z,42.63
2022-12-24T11:23:59.494Z,48.13
2022-12-24T11:26:46.155Z,35.53
2022-12-24T11:29:32.282Z,34.65
2022-12-24T11:32:23.329Z,33.25
2022-12-24T11:35:21.995Z,31.48
2022-12-24T11:38:08.117Z,35.00
2022-12-24T11:41:12.425Z,34.83
2022-12-24T11:44:04.045Z,31.73
2022-12-24T11:46:53.339Z,30.85
2022-12-24T11:49:40.228Z,34.00
2022-12-24T11:52:27.985Z,35.28
2022-12-24T11:55:19.581Z,35.75
2022-12-24T11:58:23.072Z,32.33
2022-12-24T12:01:35.606Z,32.45
2022-12-24T12:04:30.489Z,30.85
2022-12-24T12:07:30.739Z,31.60
2022-12-24T12:10:26.142Z,32.90
2022-12-24T12:13:18.865Z,29.75
2022-12-24T12:16:16.532Z,34.53
2022-12-24T12:19:11.435Z,36.50
2022-12-24T12:22:03.665Z,33.20
2022-12-24T12:24:52.052Z,33.42
2022-12-24T12:27:43.686Z,32.30
2022-12-24T12:30:32.408Z,34.65
2022-12-24T12:33:32.254Z,35.28
2022-12-24T12:36:21.680Z,37.42
2022-12-24T12:39:09.889Z,35.58
2022-12-24T12:42:19.920Z,38.70
2022-12-24T12:45:34.326Z,35.88
2022-12-24T12:48:36.103Z,30.85
2022-12-24T12:51:28.054Z,45.03
2022-12-24T12:54:26.224Z,46.70
2022-12-24T12:57:15.890Z,33.50
2022-12-24T13:00:06.246Z,35.55
2022-12-24T13:03:14.271Z,35.83
2022-12-24T13:06:12.830Z,41.35
2022-12-24T13:09:20.914Z,44.20
2022-12-24T13:12:39.598Z,43.97
2022-12-24T13:15:53.112Z,35.67
2022-12-24T13:18:54.743Z,37.22
2022-12-24T13:21:44.266Z,88.90
2022-12-24T13:24:36.197Z,56.00
2022-12-24T13:27:33.086Z,55.55
2022-12-24T13:30:40.535Z,49.10
2022-12-24T13:33:35.620Z,55.97
2022-12-24T13:36:23.153Z,37.20
2022-12-24T13:39:19.383Z,43.17
2022-12-24T13:42:06.987Z,32.42
2022-12-24T13:45:30.977Z,32.47
2022-12-24T13:48:32.809Z,37.45
2022-12-24T13:54:12.928Z,79.07
2022-12-24T13:57:00.379Z,51.20
2022-12-24T13:59:46.926Z,41.92
2022-12-24T14:02:37.736Z,35.80
2022-12-24T14:05:35.089Z,44.35
2022-12-24T14:08:24.144Z,34.28
2022-12-24T14:11:13.592Z,61.53
2022-12-24T14:14:06.181Z,62.85
2022-12-24T14:16:53.834Z,85.65
2022-12-24T14:19:45.382Z,85.18
2022-12-24T14:22:57.446Z,65.15
2022-12-24T14:25:44.222Z,67.82
2022-12-24T14:28:42.326Z,40.40
2022-12-24T14:31:28.476Z,42.65
2022-12-24T14:34:16.227Z,50.58
2022-12-24T14:37:04.678Z,40.58
2022-12-24T14:39:57.408Z,39.83
2022-12-24T14:43:19.509Z,70.05
2022-12-24T14:46:51.683Z,43.40
2022-12-24T14:50:16.324Z,43.72
2022-12-24T14:53:21.790Z,48.97
2022-12-24T14:56:16.369Z,73.68
2022-12-24T14:59:14.813Z,75.15
2022-12-24T15:02:24.091Z,57.58
2022-12-24T15:05:17.486Z,85.43
2022-12-24T15:08:09.835Z,123.55
2022-12-24T15:11:00.666Z,76.97
2022-12-24T15:13:49.535Z,99.30
2022-12-24T15:16:37.314Z,102.53
2022-12-24T15:19:29.434Z,89.15
2022-12-24T15:22:28.602Z,100.60
2022-12-24T15:25:22.069Z,52.95
2022-12-24T15:28:20.666Z,69.10
2022-12-24T15:31:20.482Z,87.00
2022-12-24T15:34:30.859Z,73.05
2022-12-24T15:37:26.504Z,46.80
2022-12-24T15:40:25.323Z,41.17
2022-12-24T15:43:11.547Z,37.60
2022-12-24T15:46:00.655Z,38.90
2022-12-24T15:48:49.085Z,37.47
2022-12-24T15:51:40.317Z,52.40
2022-12-24T15:54:26.770Z,41.42
2022-12-24T15:57:25.436Z,58.70
2022-12-24T16:00:22.835Z,44.25
2022-12-24T16:03:23.644Z,41.13
2022-12-24T16:06:15.321Z,40.00
2022-12-24T16:09:01.714Z,39.58
2022-12-24T16:11:47.314Z,44.45
2022-12-24T16:14:36.295Z,84.03
2022-12-24T16:17:24.996Z,50.38
2022-12-24T16:20:18.948Z,38.50
2022-12-24T16:23:04.947Z,35.08
2022-12-24T16:25:52.789Z,32.20
2022-12-24T16:28:38.567Z,35.75
2022-12-24T16:31:33.801Z,38.20
2022-12-24T16:34:32.070Z,37.10
2022-12-24T16:37:18.073Z,43.35
2022-12-24T16:40:03.958Z,42.40
2022-12-24T16:43:08.873Z,43.42
2022-12-24T16:46:00.747Z,42.80
2022-12-24T16:48:49.135Z,37.20
2022-12-24T16:51:34.779Z,37.08
2022-12-24T16:54:21.398Z,47.75
2022-12-24T16:57:09.773Z,69.82
2022-12-24T16:59:56.611Z,90.15
2022-12-24T17:02:42.950Z,61.80
2022-12-24T17:05:31.683Z,46.15
2022-12-24T17:08:19.136Z,52.22
2022-12-24T17:11:12.954Z,69.10
2022-12-24T17:14:08.331Z,66.40
2022-12-24T17:16:57.952Z,54.22
2022-12-24T17:19:43.865Z,69.72
2022-12-24T17:22:30.958Z,60.90
2022-12-24T17:25:17.090Z,66.43
2022-12-24T17:28:04.867Z,63.78
2022-12-24T17:30:50.824Z,58.85
2022-12-24T17:33:37.670Z,67.88
2022-12-24T17:36:23.521Z,65.00
2022-12-24T17:39:10.008Z,54.63
2022-12-24T17:41:57.222Z,61.28
2022-12-24T17:44:45.005Z,41.05
2022-12-24T17:47:30.963Z,36.95
2022-12-24T17:50:18.131Z,40.30
2022-12-24T17:53:04.243Z,48.65
2022-12-24T17:55:51.808Z,61.28
2022-12-24T17:58:40.959Z,48.00
2022-12-24T18:01:31.048Z,55.60
2022-12-24T18:04:17.077Z,45.13
2022-12-24T18:07:03.895Z,39.47
2022-12-24T18:09:49.623Z,42.80
2022-12-24T18:12:37.191Z,45.70
2022-12-24T18:15:23.559Z,43.30
2022-12-24T18:18:10.391Z,39.67
2022-12-24T18:21:02.226Z,50.15
2022-12-24T18:23:50.499Z,52.75
2022-12-24T18:26:36.365Z,42.50
2022-12-24T18:29:23.015Z,40.97
2022-12-24T18:32:13.031Z,42.92
2022-12-24T18:34:59.733Z,44.22
2022-12-24T18:37:46.191Z,71.63
2022-12-24T18:40:32.323Z,77.63
2022-12-24T18:43:18.190Z,86.45
2022-12-24T18:46:09.338Z,48.80
2022-12-24T18:48:56.012Z,41.08
2022-12-24T18:51:43.080Z,33.08
2022-12-24T18:54:29.090Z,35.38
2022-12-24T18:57:15.151Z,36.10
2022-12-24T19:00:00.739Z,38.25
2022-12-24T19:02:54.791Z,34.60
2022-12-24T19:05:40.874Z,38.72
2022-12-24T19:08:56.379Z,42.05
2022-12-24T19:11:34.777Z,43.35
2022-12-24T19:14:20.946Z,46.55
2022-12-24T19:17:06.721Z,52.58
2022-12-24T19:19:52.886Z,42.03
2022-12-24T19:22:38.694Z,59.95
2022-12-24T19:25:24.807Z,57.13
2022-12-24T19:28:10.775Z,65.95
2022-12-24T19:31:10.128Z,48.38
2022-12-24T19:33:56.930Z,46.45
2022-12-24T19:36:48.214Z,50.58
2022-12-24T19:39:34.051Z,91.03
2022-12-24T19:42:20.376Z,86.05
2022-12-24T19:45:07.138Z,61.78
2022-12-24T19:47:53.307Z,54.78
2022-12-24T19:50:39.087Z,64.80
2022-12-24T19:53:25.525Z,48.63
2022-12-24T19:56:15.008Z,44.08
2022-12-24T19:59:02.326Z,50.75
2022-12-24T20:01:48.369Z,51.63
2022-12-24T20:04:34.935Z,57.33
2022-12-24T20:07:20.555Z,42.58
2022-12-24T20:10:07.317Z,44.67
2022-12-24T20:12:53.223Z,51.63
2022-12-24T20:15:41.463Z,56.30
2022-12-24T20:18:27.401Z,54.75
2022-12-24T20:21:13.516Z,52.83
2022-12-24T20:23:59.456Z,48.35
2022-12-24T20:26:46.761Z,44.78
2022-12-24T20:29:32.437Z,44.75
2022-12-24T20:32:18.525Z,49.90
2022-12-24T20:35:04.501Z,69.22
2022-12-24T20:37:50.415Z,65.32
2022-12-24T20:40:45.015Z,67.57
2022-12-24T20:43:45.040Z,59.60
2022-12-24T20:46:34.106Z,58.08
2022-12-24T20:49:20.162Z,77.97
2022-12-24T20:52:06.091Z,51.58
2022-12-24T20:54:52.809Z,51.80
2022-12-24T20:57:38.797Z,49.05
2022-12-24T21:00:26.329Z,50.75
2022-12-24T21:03:12.782Z,55.13
2022-12-24T21:06:04.840Z,51.78
2022-12-24T21:08:52.090Z,48.97
2022-12-24T21:11:51.862Z,50.15
2022-12-24T21:14:39.527Z,70.15
2022-12-24T21:17:29.750Z,105.35
2022-12-24T21:20:16.621Z,73.63
2022-12-24T21:23:03.282Z,74.95
2022-12-24T21:25:59.700Z,77.18
2022-12-24T21:28:47.054Z,81.40
2022-12-24T21:31:32.972Z,145.43
2022-12-24T21:34:19.299Z,140.75
2022-12-24T21:37:04.843Z,114.03
2022-12-24T21:39:50.624Z,108.68
2022-12-24T21:42:37.162Z,111.53
2022-12-24T21:45:23.590Z,129.02
2022-12-24T21:48:29.262Z,82.78
2022-12-24T21:51:15.502Z,58.58
2022-12-24T21:54:20.055Z,90.55
2022-12-24T21:57:26.741Z,73.10
2022-12-24T22:00:22.044Z,58.75
2022-12-24T22:03:08.520Z,55.28
2022-12-24T22:05:58.623Z,57.17
2022-12-24T22:09:03.458Z,60.58
2022-12-24T22:11:54.331Z,59.30
2022-12-24T22:14:41.398Z,55.47
2022-12-24T22:17:28.592Z,52.03
2022-12-24T22:20:14.925Z,51.88
2022-12-24T22:23:00.483Z,52.00
2022-12-24T22:25:48.146Z,54.78
2022-12-24T22:28:35.804Z,51.78
2022-12-24T22:31:24.045Z,57.55
2022-12-24T22:34:10.174Z,57.70
2022-12-24T22:36:57.234Z,53.58
2022-12-24T22:39:43.938Z,54.80
2022-12-24T22:42:33.090Z,55.95
2022-12-24T22:45:22.395Z,62.00
2022-12-24T22:48:10.595Z,54.20
2022-12-24T22:50:57.078Z,43.70
2022-12-24T22:53:43.767Z,48.20
2022-12-24T22:56:29.883Z,47.40
2022-12-24T22:59:18.035Z,54.17
2022-12-24T23:02:05.885Z,53.63
2022-12-24T23:04:53.344Z,48.38
2022-12-24T23:07:39.389Z,48.38
2022-12-24T23:10:25.993Z,46.33
2022-12-24T23:13:32.858Z,45.88
2022-12-24T23:16:19.442Z,48.17
2022-12-24T23:19:06.598Z,48.40
2022-12-24T23:21:53.029Z,51.33
2022-12-24T23:24:39.512Z,51.50
2022-12-24T23:27:27.441Z,49.63
2022-12-24T23:30:13.509Z,49.20
2022-12-24T23:33:00.180Z,47.10
2022-12-24T23:35:46.204Z,43.92
2022-12-24T23:38:33.796Z,45.38
2022-12-24T23:41:20.430Z,54.63
2022-12-24T23:44:06.690Z,48.63
2022-12-24T23:46:52.613Z,44.83
2022-12-24T23:49:38.714Z,40.95
2022-12-24T23:52:24.982Z,44.58
2022-12-24T23:55:12.552Z,42.67
2022-12-24T23:57:58.379Z,44.63
